Wind From: 11-12-2017 06:00 Until: 12-12-2017 06:00 warning for: Wind Level: Orange info button

Power and phone distribution networks may be disrupted for relatively long periods., Roofs and chimneys can be damaged. , Tree branches may break. , Vehicles can be deported. , Traffic may be disrupted, particularly on secondary roads in forest areas. Limit your trips. , Limit your speed in highway driving, especially if you drive a vehicle or hitch sensitive to wind. , Do not go for walks in forests or along the coast., In town, be vigilant against possible falling objects., Do not work on roofs and do not touch any electrical line fallen on the ground., Store or secure sensitive objects to wind or likely to be damaged., Always install power generators outside buildings. 


Meteo18 Weather Cam more information Meteo18 Weather Cam


Thunder radar more information blitzortung!


Rain radar more information rain snow radar


Visit our other weather sites:

Template documentation
and downloads

And another site



Weather Underground History page Text

Daily Summary for July 16, 2016 Units:  Metric    English   Both
« Previous Day
Next Day »
Daily Weekly Monthly Yearly Custom
  High: Low: Average:
Temperature: 27.4 °C 8.6 °C 18.5 °C
Dew Point: 15.3 °C 7.7 °C 11.5 °C
Humidity: 96 % 39 % 68 %
Wind Speed: 9.7 km/h 0.0 km/h 1 km/h
Wind Gust: 14.5 km/h - -
Wind:- - East
Pressure: 1026.6 hPa 1022.6 hPa -
Precipitation: 0.0 mm    
Historical Graphs
 
 
Tabular Data for July 16, 2016
Time Temperature Dew Point Pressure Wind Wind Speed Wind Gust Humidity Rainfall Rate (Hourly)
00:02 12.2 °C 9.6 °C 1026.3 hPa Calm     84 % 0.0 mm
00:07 12.0 °C 9.6 °C 1026.3 hPa Calm     85 % 0.0 mm
00:12 12.0 °C 9.6 °C 1026.3 hPa Calm     85 % 0.0 mm
00:17 12.0 °C 9.6 °C 1026.3 hPa Calm     85 % 0.0 mm
00:22 12.0 °C 9.4 °C 1026.3 hPa Calm     84 % 0.0 mm
00:27 11.9 °C 9.5 °C 1026.3 hPa Calm     85 % 0.0 mm
00:32 11.9 °C 9.5 °C 1026.3 hPa Calm     85 % 0.0 mm
00:37 11.8 °C 9.4 °C 1026.3 hPa Calm     85 % 0.0 mm
00:42 11.6 °C 9.2 °C 1026.3 hPa Calm     85 % 0.0 mm
00:52 11.4 °C 9.1 °C 1026.3 hPa Calm     86 % 0.0 mm
00:57 11.2 °C 9.1 °C 1026.3 hPa Calm     87 % 0.0 mm
01:02 11.2 °C 9.3 °C 1026.3 hPa Calm     88 % 0.0 mm
01:12 11.1 °C 9.2 °C 1026.3 hPa Calm     88 % 0.0 mm
01:17 11.0 °C 9.1 °C 1026.3 hPa Calm     88 % 0.0 mm
01:22 11.0 °C 9.3 °C 1026.3 hPa Calm     89 % 0.0 mm
01:32 10.9 °C 9.0 °C 1026.3 hPa Calm     88 % 0.0 mm
01:37 10.9 °C 9.2 °C 1026.3 hPa Calm     89 % 0.0 mm
01:42 10.9 °C 9.2 °C 1026.3 hPa Calm     89 % 0.0 mm
01:52 10.8 °C 9.1 °C 1026.3 hPa Calm     89 % 0.0 mm
01:57 10.8 °C 9.1 °C 1026.3 hPa Calm     89 % 0.0 mm
02:02 10.8 °C 9.1 °C 1026.3 hPa Calm     89 % 0.0 mm
02:07 10.7 °C 9.0 °C 1026.3 hPa Calm     89 % 0.0 mm
02:17 10.6 °C 8.9 °C 1026.3 hPa Calm     89 % 0.0 mm
02:22 10.4 °C 8.8 °C 1026.3 hPa Calm     90 % 0.0 mm
02:32 10.2 °C 8.8 °C 1026.3 hPa Calm     91 % 0.0 mm
02:37 10.2 °C 8.8 °C 1026.3 hPa Calm     91 % 0.0 mm
02:42 10.1 °C 8.7 °C 1026.3 hPa Calm     91 % 0.0 mm
02:47 10.1 °C 8.9 °C 1026.3 hPa Calm     92 % 0.0 mm
02:52 10.1 °C 8.9 °C 1026.3 hPa Calm     92 % 0.0 mm
02:57 10.0 °C 8.8 °C 1026.0 hPa Calm     92 % 0.0 mm
03:02 9.9 °C 8.7 °C 1026.0 hPa Calm     92 % 0.0 mm
03:12 9.7 °C 8.5 °C 1026.0 hPa Calm     92 % 0.0 mm
03:17 9.7 °C 8.5 °C 1026.0 hPa Calm     92 % 0.0 mm
03:22 9.6 °C 8.4 °C 1026.0 hPa Calm     92 % 0.0 mm
03:32 9.6 °C 8.5 °C 1026.0 hPa Calm     93 % 0.0 mm
03:37 9.5 °C 8.4 °C 1026.0 hPa Calm     93 % 0.0 mm
03:42 9.6 °C 8.5 °C 1026.0 hPa Calm     93 % 0.0 mm
03:47 9.5 °C 8.4 °C 1026.0 hPa Calm     93 % 0.0 mm
03:52 9.4 °C 8.3 °C 1026.0 hPa Calm     93 % 0.0 mm
03:57 9.5 °C 8.6 °C 1026.0 hPa Calm     94 % 0.0 mm
04:02 9.4 °C 8.3 °C 1026.0 hPa Calm     93 % 0.0 mm
04:07 9.3 °C 8.2 °C 1026.0 hPa Calm     93 % 0.0 mm
04:12 9.3 °C 8.2 °C 1026.0 hPa Calm     93 % 0.0 mm
04:17 9.3 °C 8.4 °C 1026.0 hPa Calm     94 % 0.0 mm
04:22 9.3 °C 8.4 °C 1026.0 hPa Calm     94 % 0.0 mm
04:32 9.2 °C 8.3 °C 1026.0 hPa Calm     94 % 0.0 mm
04:37 9.1 °C 8.2 °C 1026.0 hPa Calm     94 % 0.0 mm
04:42 9.1 °C 8.2 °C 1026.0 hPa Calm     94 % 0.0 mm
04:47 9.1 °C 8.2 °C 1026.0 hPa Calm     94 % 0.0 mm
04:52 8.9 °C 8.0 °C 1026.0 hPa Calm     94 % 0.0 mm
04:57 8.9 °C 8.0 °C 1026.0 hPa Calm     94 % 0.0 mm
05:02 9.0 °C 8.1 °C 1026.0 hPa Calm     94 % 0.0 mm
05:07 9.0 °C 8.1 °C 1026.0 hPa Calm     94 % 0.0 mm
05:12 8.9 °C 8.0 °C 1026.0 hPa Calm     94 % 0.0 mm
05:17 8.9 °C 8.0 °C 1026.0 hPa Calm     94 % 0.0 mm
05:22 8.8 °C 7.9 °C 1026.0 hPa Calm     94 % 0.0 mm
05:27 8.8 °C 7.9 °C 1026.0 hPa Calm     94 % 0.0 mm
05:32 8.7 °C 7.8 °C 1026.0 hPa Calm     94 % 0.0 mm
05:37 8.7 °C 7.9 °C 1026.0 hPa Calm     95 % 0.0 mm
05:42 8.7 °C 7.8 °C 1026.3 hPa Calm     94 % 0.0 mm
05:47 8.6 °C 7.7 °C 1026.3 hPa Calm     94 % 0.0 mm
05:52 8.6 °C 7.8 °C 1026.3 hPa Calm     95 % 0.0 mm
05:57 8.6 °C 7.8 °C 1026.3 hPa Calm     95 % 0.0 mm
06:02 8.6 °C 7.8 °C 1026.3 hPa Calm     95 % 0.0 mm
06:07 8.7 °C 7.9 °C 1026.3 hPa Calm     95 % 0.0 mm
06:12 8.8 °C 8.0 °C 1026.3 hPa Calm     95 % 0.0 mm
06:17 8.8 °C 8.0 °C 1026.3 hPa Calm     95 % 0.0 mm
06:22 8.8 °C 8.0 °C 1026.3 hPa Calm     95 % 0.0 mm
06:27 8.8 °C 8.0 °C 1026.3 hPa Calm     95 % 0.0 mm
06:32 8.9 °C 8.1 °C 1026.3 hPa Calm     95 % 0.0 mm
06:37 9.0 °C 8.2 °C 1026.3 hPa Calm     95 % 0.0 mm
06:42 9.1 °C 8.3 °C 1026.3 hPa Calm     95 % 0.0 mm
06:47 9.1 °C 8.3 °C 1026.3 hPa Calm     95 % 0.0 mm
06:52 9.0 °C 8.2 °C 1026.3 hPa Calm     95 % 0.0 mm
06:57 9.0 °C 8.2 °C 1026.3 hPa Calm     95 % 0.0 mm
07:02 9.1 °C 8.3 °C 1026.3 hPa Calm     95 % 0.0 mm
07:07 9.1 °C 8.3 °C 1026.3 hPa Calm     95 % 0.0 mm
07:12 9.2 °C 8.4 °C 1026.3 hPa Calm     95 % 0.0 mm
07:17 9.4 °C 8.8 °C 1026.3 hPa Calm     96 % 0.0 mm
07:22 9.7 °C 9.1 °C 1026.3 hPa Calm     96 % 0.0 mm
07:27 9.9 °C 9.3 °C 1026.3 hPa Calm     96 % 0.0 mm
07:32 10.2 °C 9.6 °C 1026.3 hPa Calm     96 % 0.0 mm
07:37 10.3 °C 9.7 °C 1026.3 hPa Calm     96 % 0.0 mm
07:42 10.5 °C 9.9 °C 1026.3 hPa Calm     96 % 0.0 mm
07:47 10.7 °C 10.1 °C 1026.3 hPa Calm     96 % 0.0 mm
07:57 11.0 °C 10.4 °C 1026.3 hPa Calm     96 % 0.0 mm
08:02 11.3 °C 10.7 °C 1026.3 hPa Calm     96 % 0.0 mm
08:12 11.7 °C 10.9 °C 1026.3 hPa Calm     95 % 0.0 mm
08:17 11.9 °C 10.8 °C 1026.6 hPa Calm     93 % 0.0 mm
08:22 12.2 °C 10.8 °C 1026.6 hPa Calm     91 % 0.0 mm
08:27 12.6 °C 11.0 °C 1026.6 hPa Calm     90 % 0.0 mm
08:32 12.8 °C 11.2 °C 1026.3 hPa Calm     90 % 0.0 mm
08:37 13.0 °C 11.4 °C 1026.3 hPa Calm     90 % 0.0 mm
08:42 13.3 °C 11.4 °C 1026.3 hPa Calm     88 % 0.0 mm
08:47 13.8 °C 11.5 °C 1026.3 hPa Calm     86 % 0.0 mm
08:52 14.3 °C 11.1 °C 1026.3 hPa Calm     81 % 0.0 mm
08:57 15.2 °C 11.2 °C 1026.3 hPa Calm     77 % 0.0 mm
09:02 16.0 °C 11.4 °C 1026.3 hPa Calm     74 % 0.0 mm
09:12 16.9 °C 11.2 °C 1026.3 hPa Calm     69 % 0.0 mm
09:17 17.6 °C 11.6 °C 1026.3 hPa Calm     68 % 0.0 mm
09:22 18.4 °C 11.7 °C 1026.3 hPa Calm     65 % 0.0 mm
09:27 18.9 °C 12.2 °C 1026.3 hPa Calm     65 % 0.0 mm
09:32 19.4 °C 12.2 °C 1026.3 hPa Calm     63 % 0.0 mm
09:37 19.9 °C 11.9 °C 1026.3 hPa Calm     60 % 0.0 mm
09:42 20.4 °C 11.3 °C 1026.3 hPa Calm     56 % 0.0 mm
09:47 20.7 °C 11.6 °C 1026.3 hPa Calm     56 % 0.0 mm
09:52 20.8 °C 10.9 °C 1026.3 hPa Calm     53 % 0.0 mm
09:57 21.2 °C 10.7 °C 1026.3 hPa Calm     51 % 0.0 mm
10:02 21.4 °C 11.1 °C 1026.3 hPa Calm     52 % 0.0 mm
10:07 21.7 °C 11.1 °C 1026.3 hPa Calm     51 % 0.0 mm
10:12 21.9 °C 11.3 °C 1026.3 hPa Calm     51 % 0.0 mm
10:17 22.1 °C 10.6 °C 1026.3 hPa Calm     48 % 0.0 mm
10:22 22.0 °C 10.5 °C 1026.3 hPa Calm     48 % 0.0 mm
10:32 22.2 °C 10.7 °C 1026.3 hPa Calm     48 % 0.0 mm
10:37 22.6 °C 10.7 °C 1026.3 hPa Calm     47 % 0.0 mm
10:42 22.9 °C 11.3 °C 1026.3 hPa Calm     48 % 0.0 mm
10:47 23.2 °C 11.6 °C 1026.3 hPa Calm     48 % 0.0 mm
10:52 23.3 °C 11.4 °C 1026.3 hPa Calm     47 % 0.0 mm
10:57 23.2 °C 10.9 °C 1026.3 hPa Calm     46 % 0.0 mm
11:02 23.1 °C 10.2 °C 1026.3 hPa Calm     44 % 0.0 mm
11:12 23.2 °C 10.3 °C 1026.3 hPa Calm   1.6 km/h 44 % 0.0 mm
11:17 23.4 °C 10.5 °C 1026.0 hPa Calm     44 % 0.0 mm
11:22 23.8 °C 10.5 °C 1026.0 hPa Calm     43 % 0.0 mm
11:32 23.9 °C 10.6 °C 1026.0 hPa NE 3.2 km/h 8.0 km/h 43 % 0.0 mm
11:37 23.9 °C 9.5 °C 1026.0 hPa Calm   9.7 km/h 40 % 0.0 mm
11:42 23.9 °C 10.6 °C 1026.0 hPa SE 1.6 km/h 9.7 km/h 43 % 0.0 mm
11:47 24.3 °C 10.6 °C 1026.0 hPa Calm   9.7 km/h 42 % 0.0 mm
11:52 24.4 °C 10.3 °C 1026.0 hPa East 3.2 km/h 8.0 km/h 41 % 0.0 mm
11:57 24.4 °C 10.7 °C 1026.0 hPa ENE 1.6 km/h 8.0 km/h 42 % 0.0 mm
12:02 24.5 °C 10.4 °C 1026.0 hPa NNW 1.6 km/h 8.0 km/h 41 % 0.0 mm
12:12 24.7 °C 10.9 °C 1026.0 hPa SSW 1.6 km/h 8.0 km/h 42 % 0.0 mm
12:17 24.9 °C 11.1 °C 1026.0 hPa NNE 9.7 km/h 9.7 km/h 42 % 0.0 mm
12:22 24.9 °C 12.1 °C 1026.0 hPa Calm   8.0 km/h 45 % 0.0 mm
12:27 25.0 °C 11.9 °C 1026.0 hPa NE 1.6 km/h 9.7 km/h 44 % 0.0 mm
12:32 24.9 °C 11.1 °C 1026.0 hPa East 1.6 km/h 9.7 km/h 42 % 0.0 mm
12:37 25.0 °C 11.6 °C 1026.0 hPa SSE 3.2 km/h 12.9 km/h 43 % 0.0 mm
12:42 25.1 °C 10.9 °C 1026.0 hPa NNE 1.6 km/h 12.9 km/h 41 % 0.0 mm
12:47 24.9 °C 11.8 °C 1026.0 hPa East 4.8 km/h 11.3 km/h 44 % 0.0 mm
12:52 24.8 °C 12.1 °C 1026.0 hPa SE 3.2 km/h 9.7 km/h 45 % 0.0 mm
13:07 25.7 °C 12.5 °C 1025.6 hPa ENE 4.8 km/h 11.3 km/h 44 % 0.0 mm
13:12 25.9 °C 12.0 °C 1025.6 hPa ENE 3.2 km/h 11.3 km/h 42 % 0.0 mm
13:22 25.6 °C 11.0 °C 1025.6 hPa Calm   11.3 km/h 40 % 0.0 mm
13:32 25.9 °C 12.0 °C 1025.6 hPa SSW 1.6 km/h 11.3 km/h 42 % 0.0 mm
13:37 25.9 °C 11.6 °C 1025.6 hPa ESE 1.6 km/h 9.7 km/h 41 % 0.0 mm
13:42 26.1 °C 12.2 °C 1025.3 hPa ENE 1.6 km/h 9.7 km/h 42 % 0.0 mm
13:47 26.1 °C 11.4 °C 1025.3 hPa Calm   9.7 km/h 40 % 0.0 mm
13:52 26.2 °C 11.2 °C 1025.3 hPa West 1.6 km/h 9.7 km/h 39 % 0.0 mm
14:02 26.2 °C 11.9 °C 1025.3 hPa SSE 1.6 km/h 8.0 km/h 41 % 0.0 mm
14:12 26.4 °C 13.2 °C 1025.3 hPa NNE 3.2 km/h 9.7 km/h 44 % 0.0 mm
14:17 26.5 °C 12.9 °C 1025.3 hPa WNW 4.8 km/h 8.0 km/h 43 % 0.0 mm
14:22 26.3 °C 12.7 °C 1024.9 hPa ESE 4.8 km/h 8.0 km/h 43 % 0.0 mm
14:27 26.3 °C 13.4 °C 1024.9 hPa SW 4.8 km/h 12.9 km/h 45 % 0.0 mm
14:32 26.2 °C 12.6 °C 1024.9 hPa East 1.6 km/h 12.9 km/h 43 % 0.0 mm
14:37 26.2 °C 12.6 °C 1024.9 hPa ENE 1.6 km/h 12.9 km/h 43 % 0.0 mm
14:42 26.2 °C 11.9 °C 1024.9 hPa ENE 6.4 km/h 9.7 km/h 41 % 0.0 mm
14:52 26.3 °C 12.7 °C 1024.9 hPa NNE 3.2 km/h 12.9 km/h 43 % 0.0 mm
15:02 26.6 °C 13.3 °C 1024.9 hPa Calm   8.0 km/h 44 % 0.0 mm
15:07 26.7 °C 13.4 °C 1024.6 hPa ENE 1.6 km/h 8.0 km/h 44 % 0.0 mm
15:12 26.8 °C 12.8 °C 1024.6 hPa ENE 6.4 km/h 8.0 km/h 42 % 0.0 mm
15:17 26.7 °C 12.7 °C 1024.6 hPa SSE 3.2 km/h 8.0 km/h 42 % 0.0 mm
15:22 26.7 °C 12.4 °C 1024.6 hPa ENE 4.8 km/h 9.7 km/h 41 % 0.0 mm
15:27 26.6 °C 13.0 °C 1024.6 hPa NE 1.6 km/h 11.3 km/h 43 % 0.0 mm
15:32 26.7 °C 13.4 °C 1024.3 hPa NE 1.6 km/h 11.3 km/h 44 % 0.0 mm
15:37 26.7 °C 12.4 °C 1024.3 hPa SSE 1.6 km/h 11.3 km/h 41 % 0.0 mm
15:42 26.7 °C 12.7 °C 1024.3 hPa SE 3.2 km/h 11.3 km/h 42 % 0.0 mm
15:52 26.8 °C 13.9 °C 1024.3 hPa NE 1.6 km/h 11.3 km/h 45 % 0.0 mm
15:57 26.9 °C 12.9 °C 1024.3 hPa NE 3.2 km/h 11.3 km/h 42 % 0.0 mm
16:02 27.1 °C 14.1 °C 1024.3 hPa Calm   11.3 km/h 45 % 0.0 mm
16:07 27.3 °C 13.3 °C 1024.3 hPa NE 4.8 km/h 9.7 km/h 42 % 0.0 mm
16:12 27.3 °C 13.3 °C 1024.3 hPa Calm   9.7 km/h 42 % 0.0 mm
16:22 27.4 °C 13.4 °C 1024.3 hPa NNE 1.6 km/h 8.0 km/h 42 % 0.0 mm
16:27 27.2 °C 13.9 °C 1024.3 hPa Calm   9.7 km/h 44 % 0.0 mm
16:32 27.2 °C 13.9 °C 1023.9 hPa East 6.4 km/h 9.7 km/h 44 % 0.0 mm
16:37 27.2 °C 13.5 °C 1024.3 hPa NNE 3.2 km/h 9.7 km/h 43 % 0.0 mm
16:42 27.2 °C 13.2 °C 1023.9 hPa ENE 3.2 km/h 9.7 km/h 42 % 0.0 mm
16:47 27.1 °C 14.5 °C 1023.9 hPa NE 1.6 km/h 9.7 km/h 46 % 0.0 mm
16:52 27.2 °C 13.5 °C 1023.9 hPa East 6.4 km/h 9.7 km/h 43 % 0.0 mm
16:57 27.3 °C 14.0 °C 1023.9 hPa NNE 1.6 km/h 11.3 km/h 44 % 0.0 mm
17:02 27.4 °C 14.1 °C 1023.9 hPa Calm   11.3 km/h 44 % 0.0 mm
17:12 27.2 °C 13.9 °C 1023.9 hPa East 4.8 km/h 9.7 km/h 44 % 0.0 mm
17:17 27.3 °C 13.6 °C 1023.6 hPa East 4.8 km/h 14.5 km/h 43 % 0.0 mm
17:22 27.4 °C 14.4 °C 1023.6 hPa East 6.4 km/h 14.5 km/h 45 % 0.0 mm
17:32 27.4 °C 15.1 °C 1023.6 hPa Calm   11.3 km/h 47 % 0.0 mm
17:37 27.3 °C 14.3 °C 1023.2 hPa NE 1.6 km/h 11.3 km/h 45 % 0.0 mm
17:42 27.2 °C 14.2 °C 1023.2 hPa ENE 1.6 km/h 9.7 km/h 45 % 0.0 mm
17:47 27.1 °C 14.8 °C 1023.2 hPa South 1.6 km/h 9.7 km/h 47 % 0.0 mm
17:52 27.1 °C 14.1 °C 1023.2 hPa NE 4.8 km/h 9.7 km/h 45 % 0.0 mm
17:57 26.9 °C 14.3 °C 1023.2 hPa ENE 3.2 km/h 9.7 km/h 46 % 0.0 mm
18:02 26.9 °C 14.3 °C 1023.2 hPa ENE 1.6 km/h 11.3 km/h 46 % 0.0 mm
18:07 26.9 °C 14.6 °C 1023.2 hPa NE 8.0 km/h 11.3 km/h 47 % 0.0 mm
18:12 26.9 °C 14.3 °C 1023.2 hPa ENE 4.8 km/h 11.3 km/h 46 % 0.0 mm
18:17 27.1 °C 14.8 °C 1023.2 hPa ESE 3.2 km/h 11.3 km/h 47 % 0.0 mm
18:22 26.8 °C 13.9 °C 1023.2 hPa SSE 3.2 km/h 9.7 km/h 45 % 0.0 mm
18:27 26.7 °C 14.5 °C 1023.2 hPa ENE 4.8 km/h 9.7 km/h 47 % 0.0 mm
18:32 26.7 °C 15.1 °C 1023.2 hPa Calm   11.3 km/h 49 % 0.0 mm
18:37 26.7 °C 14.8 °C 1022.9 hPa Calm   11.3 km/h 48 % 0.0 mm
18:42 26.7 °C 14.8 °C 1022.9 hPa East 3.2 km/h 11.3 km/h 48 % 0.0 mm
18:52 26.4 °C 14.5 °C 1022.9 hPa North 3.2 km/h 12.9 km/h 48 % 0.0 mm
18:57 26.2 °C 14.3 °C 1022.9 hPa East 1.6 km/h 12.9 km/h 48 % 0.0 mm
19:02 26.1 °C 15.2 °C 1022.9 hPa East 4.8 km/h 9.7 km/h 51 % 0.0 mm
19:12 25.7 °C 14.2 °C 1022.9 hPa ESE 4.8 km/h 11.3 km/h 49 % 0.0 mm
19:17 25.6 °C 14.4 °C 1022.9 hPa ESE 4.8 km/h 11.3 km/h 50 % 0.0 mm
19:22 25.5 °C 14.3 °C 1022.9 hPa Calm   9.7 km/h 50 % 0.0 mm
19:32 25.3 °C 14.4 °C 1022.9 hPa Calm   8.0 km/h 51 % 0.0 mm
19:37 25.2 °C 15.2 °C 1022.9 hPa Calm   6.4 km/h 54 % 0.0 mm
19:42 25.1 °C 14.6 °C 1022.9 hPa ENE 1.6 km/h 9.7 km/h 52 % 0.0 mm
19:52 24.8 °C 14.6 °C 1022.9 hPa East 3.2 km/h 9.7 km/h 53 % 0.0 mm
20:02 24.6 °C 14.4 °C 1022.9 hPa NE 4.8 km/h 8.0 km/h 53 % 0.0 mm
20:07 24.4 °C 14.8 °C 1022.6 hPa ENE 4.8 km/h 9.7 km/h 55 % 0.0 mm
20:12 24.4 °C 14.5 °C 1022.6 hPa Calm   9.7 km/h 54 % 0.0 mm
20:17 24.2 °C 14.3 °C 1022.9 hPa NE 3.2 km/h 9.7 km/h 54 % 0.0 mm
20:22 24.1 °C 14.5 °C 1022.9 hPa Calm   8.0 km/h 55 % 0.0 mm
20:32 23.9 °C 14.6 °C 1022.9 hPa NE 4.8 km/h 6.4 km/h 56 % 0.0 mm
20:37 23.8 °C 14.5 °C 1022.9 hPa Calm   6.4 km/h 56 % 0.0 mm
20:47 23.6 °C 14.6 °C 1022.9 hPa NE 1.6 km/h 6.4 km/h 57 % 0.0 mm
20:52 23.4 °C 14.7 °C 1022.9 hPa Calm   6.4 km/h 58 % 0.0 mm
21:02 23.0 °C 14.6 °C 1022.9 hPa Calm   3.2 km/h 59 % 0.0 mm
21:07 22.8 °C 14.6 °C 1022.9 hPa Calm   1.6 km/h 60 % 0.0 mm
21:12 22.5 °C 14.6 °C 1022.9 hPa Calm   1.6 km/h 61 % 0.0 mm
21:17 22.2 °C 14.8 °C 1022.9 hPa Calm   1.6 km/h 63 % 0.0 mm
21:22 21.8 °C 14.7 °C 1022.9 hPa Calm   1.6 km/h 64 % 0.0 mm
21:32 21.3 °C 14.9 °C 1022.9 hPa Calm     67 % 0.0 mm
21:37 21.0 °C 14.9 °C 1022.9 hPa Calm     68 % 0.0 mm
21:42 20.9 °C 14.8 °C 1022.9 hPa Calm   1.6 km/h 68 % 0.0 mm
21:47 20.8 °C 14.7 °C 1022.9 hPa ENE 1.6 km/h 1.6 km/h 68 % 0.0 mm
21:52 20.5 °C 14.8 °C 1022.9 hPa Calm   1.6 km/h 70 % 0.0 mm
21:57 20.2 °C 14.8 °C 1022.9 hPa Calm   1.6 km/h 71 % 0.0 mm
22:02 19.9 °C 14.7 °C 1022.9 hPa Calm   1.6 km/h 72 % 0.0 mm
22:12 19.4 °C 14.9 °C 1023.2 hPa Calm     75 % 0.0 mm
22:17 19.2 °C 14.9 °C 1023.2 hPa Calm     76 % 0.0 mm
22:22 18.9 °C 14.6 °C 1023.2 hPa Calm     76 % 0.0 mm
22:27 18.7 °C 14.6 °C 1023.2 hPa Calm     77 % 0.0 mm
22:32 18.6 °C 14.9 °C 1023.2 hPa Calm     79 % 0.0 mm
22:37 18.4 °C 14.7 °C 1023.2 hPa Calm     79 % 0.0 mm
22:42 18.3 °C 14.8 °C 1023.2 hPa Calm     80 % 0.0 mm
22:47 18.2 °C 14.7 °C 1023.2 hPa Calm     80 % 0.0 mm
22:52 18.1 °C 14.6 °C 1023.2 hPa Calm     80 % 0.0 mm
23:02 17.8 °C 14.7 °C 1023.2 hPa Calm     82 % 0.0 mm
23:12 17.7 °C 14.8 °C 1023.2 hPa Calm     83 % 0.0 mm
23:17 17.7 °C 15.0 °C 1023.2 hPa Calm     84 % 0.0 mm
23:22 17.7 °C 15.0 °C 1023.2 hPa Calm     84 % 0.0 mm
23:27 17.6 °C 14.9 °C 1023.2 hPa Calm     84 % 0.0 mm
23:32 17.7 °C 15.0 °C 1023.2 hPa Calm     84 % 0.0 mm
23:37 17.6 °C 14.9 °C 1023.2 hPa Calm     84 % 0.0 mm
23:42 17.7 °C 15.0 °C 1023.2 hPa Calm     84 % 0.0 mm
23:47 17.8 °C 15.1 °C 1023.2 hPa Calm   1.6 km/h 84 % 0.0 mm
23:52 17.9 °C 15.2 °C 1023.2 hPa Calm   3.2 km/h 84 % 0.0 mm
23:57 18.0 °C 15.3 °C 1023.2 hPa Calm   3.2 km/h 84 % 0.0 mm
Meteo18
Compliments of Weather Underground - 4 mb

Script developed by  Jim McMurry - jmcmurry@mwt.net Adapted for the template by  Wim van der Kuil - Leuven-Template.eu

You find our weather info also at:

European Weather Network

Weather Underground

Equipment we use:

Weather-station
Davis Vue

Weather-program
Meteohub

Weather-server
Raspberry PI 2 B+

Provider
1 and 1

Davis Vue

Meteohub

Raspberry PI 2 B+

1 and 1